createdAt,value
2023-01-30T00:07:59.081Z,99.96
2023-01-30T00:18:01.702Z,99.25
2023-01-30T00:28:04.224Z,99.75
2023-01-30T00:38:06.737Z,98.40
2023-01-30T00:48:09.241Z,97.99
2023-01-30T00:58:13.321Z,96.57
2023-01-30T01:08:16.239Z,95.85
2023-01-30T01:18:18.752Z,95.98
2023-01-30T01:28:28.101Z,94.67
2023-01-30T01:38:30.642Z,94.35
2023-01-30T01:48:39.032Z,95.28
2023-01-30T01:58:51.550Z,95.20
2023-01-30T02:08:58.933Z,96.32
2023-01-30T02:19:01.797Z,97.27
2023-01-30T02:29:16.113Z,98.10
2023-01-30T02:39:21.684Z,96.21
2023-01-30T02:49:28.061Z,96.16
2023-01-30T02:59:43.785Z,95.04
2023-01-30T03:10:09.424Z,98.52
2023-01-30T03:20:20.512Z,95.13
2023-01-30T03:30:25.843Z,95.04
2023-01-30T03:40:35.700Z,100.00
2023-01-30T03:50:38.995Z,98.97
2023-01-30T04:00:41.971Z,98.03
2023-01-30T04:10:44.654Z,98.31
2023-01-30T04:20:47.653Z,95.75
2023-01-30T04:30:54.852Z,99.71
2023-01-30T04:41:09.131Z,98.76
2023-01-30T04:51:15.544Z,96.78
2023-01-30T05:01:25.604Z,97.26
2023-01-30T05:11:30.023Z,98.54
2023-01-30T05:21:32.603Z,96.18
2023-01-30T05:31:35.812Z,96.36
2023-01-30T05:41:38.460Z,98.71
2023-01-30T05:51:40.994Z,98.65
2023-01-30T06:01:43.573Z,98.04
2023-01-30T06:11:46.137Z,98.32
2023-01-30T06:21:48.599Z,97.95
2023-01-30T06:31:51.130Z,97.78
2023-01-30T06:41:53.769Z,96.08
2023-01-30T06:51:56.226Z,95.13
2023-01-30T07:01:58.765Z,94.36
2023-01-30T07:12:01.238Z,94.12
2023-01-30T07:22:03.804Z,93.51
2023-01-30T07:32:07.953Z,93.58
2023-01-30T07:42:10.544Z,92.12
2023-01-30T07:52:13.081Z,92.40
2023-01-30T08:02:15.595Z,93.52
2023-01-30T08:12:18.127Z,93.58
2023-01-30T08:22:20.736Z,93.80
2023-01-30T08:32:23.331Z,92.68
2023-01-30T08:42:25.845Z,92.03
2023-01-30T08:52:28.317Z,91.81
2023-01-30T09:02:31.110Z,92.97
2023-01-30T09:12:33.816Z,91.28
2023-01-30T09:22:37.324Z,90.23
2023-01-30T09:32:39.984Z,87.63
2023-01-30T09:43:11.290Z,85.98
2023-01-30T09:53:25.943Z,85.50
2023-01-30T10:03:37.303Z,78.06
2023-01-30T10:14:16.533Z,78.40
2023-01-30T10:25:23.954Z,76.99
2023-01-30T10:35:32.234Z,71.90
2023-01-30T10:45:43.570Z,72.96
2023-01-30T10:55:52.973Z,72.04
2023-01-30T11:06:01.772Z,65.47
2023-01-30T11:16:08.405Z,70.25
2023-01-30T11:26:21.788Z,73.51
2023-01-30T11:36:32.199Z,75.44
2023-01-30T11:46:38.377Z,75.26
2023-01-30T11:56:47.418Z,74.54
2023-01-30T12:07:06.529Z,74.98
2023-01-30T12:17:11.804Z,76.66
2023-01-30T12:27:28.392Z,76.99
2023-01-30T12:37:53.764Z,76.57
2023-01-30T12:48:17.997Z,74.51
2023-01-30T12:58:38.947Z,73.86
2023-01-30T13:08:44.337Z,74.06
2023-01-30T13:19:03.221Z,69.03
2023-01-30T13:29:30.656Z,54.39
2023-01-30T13:39:54.449Z,63.10
2023-01-30T13:50:18.879Z,67.14
2023-01-30T14:00:21.827Z,68.12
2023-01-30T14:10:27.707Z,68.41
2023-01-30T14:20:33.699Z,68.38
2023-01-30T14:30:48.480Z,69.40
2023-01-30T14:41:02.842Z,68.80
2023-01-30T14:51:30.334Z,70.83
2023-01-30T15:02:10.382Z,74.73
2023-01-30T15:12:24.847Z,74.89
2023-01-30T15:23:04.298Z,73.47
2023-01-30T15:33:22.813Z,74.54
2023-01-30T15:43:44.501Z,75.69
2023-01-30T15:53:48.106Z,76.54
2023-01-30T16:03:53.305Z,76.98
2023-01-30T16:13:55.951Z,76.73
2023-01-30T16:24:04.430Z,77.50
2023-01-30T16:34:32.161Z,78.53
2023-01-30T16:44:34.687Z,79.29
2023-01-30T16:54:39.670Z,79.60
2023-01-30T17:04:43.350Z,79.47
2023-01-30T17:14:45.914Z,79.64
2023-01-30T17:24:48.708Z,79.71
2023-01-30T17:34:52.675Z,81.46
2023-01-30T17:44:55.263Z,82.35
2023-01-30T17:54:59.043Z,83.40
2023-01-30T18:05:01.603Z,84.54
2023-01-30T18:15:04.665Z,85.89
2023-01-30T18:25:07.872Z,87.21
2023-01-30T18:35:10.710Z,89.17
2023-01-30T18:45:13.519Z,89.69
2023-01-30T18:55:16.370Z,88.61
2023-01-30T19:05:19.964Z,85.76
2023-01-30T19:15:23.107Z,85.31
2023-01-30T19:25:25.879Z,90.12
2023-01-30T19:35:28.660Z,89.95
2023-01-30T19:45:32.801Z,90.76
2023-01-30T19:55:35.704Z,89.62
2023-01-30T20:05:39.778Z,91.84
2023-01-30T20:15:42.514Z,91.02
2023-01-30T20:25:46.617Z,90.83
2023-01-30T20:35:49.615Z,90.77
2023-01-30T20:46:03.399Z,92.05
2023-01-30T20:56:07.162Z,91.20
2023-01-30T21:06:10.015Z,89.21
2023-01-30T21:16:19.048Z,91.08
2023-01-30T21:26:23.671Z,88.95
2023-01-30T21:36:26.949Z,84.69
2023-01-30T21:46:36.836Z,82.87
2023-01-30T21:56:40.480Z,87.10
2023-01-30T22:06:44.217Z,88.36
2023-01-30T22:16:46.904Z,87.25
2023-01-30T22:26:50.689Z,89.52
2023-01-30T22:36:54.271Z,90.15
2023-01-30T22:46:56.772Z,88.60
2023-01-30T22:56:59.219Z,87.89
2023-01-30T23:07:01.777Z,87.00
2023-01-30T23:17:24.625Z,86.16
2023-01-30T23:27:27.173Z,85.58
2023-01-30T23:37:50.374Z,85.00
2023-01-30T23:47:52.927Z,85.71
2023-01-30T23:57:55.429Z,86.35
